Time;durP1;ratioP1;P1;durP2;ratioP2;P2;SDS_P1;SDS_P2;PMS_P1;PMS_P2;Temp;Humidity;BMP_temperature;BMP_pressure;BME280_temperature;BME280_humidity;BME280_pressure;Samples;Min_cycle;Max_cycle;Signal;HPM_P1;HPM_P2
2022/12/12 00:02:53;;;;;;;29.07;19.27;;;-0.60;1.00;;;;;;6257663;28;20769;-51
2022/12/12 00:05:56;;;;;;;31.93;21.23;;;-0.60;1.00;;;;;;6237509;28;20678;-51
2022/12/12 00:09:02;;;;;;;32.73;20.20;;;-0.70;1.00;;;;;;6257021;28;20237;-51
2022/12/12 00:12:06;;;;;;;32.83;21.07;;;-0.60;1.00;;;;;;6238261;28;20754;-52
2022/12/12 00:15:10;;;;;;;31.43;19.00;;;-0.70;1.00;;;;;;6239579;28;20238;-51
2022/12/12 00:18:13;;;;;;;31.17;18.87;;;-0.60;1.00;;;;;;6261690;28;20241;-52
2022/12/12 00:21:19;;;;;;;30.03;19.17;;;-0.70;1.00;;;;;;6261951;28;20245;-51
2022/12/12 00:24:23;;;;;;;33.97;20.40;;;-0.70;1.00;;;;;;6228972;28;20242;-51
2022/12/12 00:27:26;;;;;;;30.33;19.77;;;-0.60;1.00;;;;;;6238426;28;20242;-51
2022/12/12 00:30:29;;;;;;;31.67;18.90;;;-0.50;1.00;;;;;;6257770;28;20245;-51
2022/12/12 00:33:32;;;;;;;34.43;19.90;;;-0.80;1.00;;;;;;6261094;28;20984;-51
2022/12/12 00:36:35;;;;;;;30.83;19.70;;;-0.80;1.00;;;;;;6260722;28;20241;-51
2022/12/12 00:39:39;;;;;;;35.57;20.43;;;-0.80;1.00;;;;;;6255182;28;20252;-51
2022/12/12 00:42:42;;;;;;;35.23;20.97;;;-0.70;1.00;;;;;;6261950;28;20237;-51
2022/12/12 00:45:45;;;;;;;33.43;20.30;;;-0.60;1.00;;;;;;6252286;28;20239;-52
2022/12/12 00:48:48;;;;;;;30.70;19.93;;;-0.60;1.00;;;;;;6237353;28;20257;-52
2022/12/12 00:51:51;;;;;;;33.43;20.80;;;-0.50;1.00;;;;;;6238904;28;20234;-52
2022/12/12 00:54:56;;;;;;;30.93;19.63;;;-0.80;1.00;;;;;;6243274;28;20637;-48
2022/12/12 00:57:59;;;;;;;34.83;20.07;;;-0.70;1.00;;;;;;6260909;28;20384;-51
2022/12/12 01:01:07;;;;;;;35.90;20.03;;;-0.70;1.00;;;;;;6260556;28;20416;-49
2022/12/12 01:04:10;;;;;;;40.87;21.13;;;-0.60;1.00;;;;;;6253017;28;20237;-51
2022/12/12 01:07:13;;;;;;;32.60;20.73;;;-0.80;1.00;;;;;;6260781;28;20249;-51
2022/12/12 01:10:18;;;;;;;33.87;20.70;;;-0.70;1.00;;;;;;6256911;28;20272;-51
2022/12/12 01:13:22;;;;;;;35.97;21.93;;;-0.80;1.00;;;;;;6261335;28;20233;-50
2022/12/12 01:16:25;;;;;;;36.30;19.97;;;-0.70;1.00;;;;;;6260427;28;20234;-51
2022/12/12 01:19:28;;;;;;;34.67;19.80;;;-0.90;1.00;;;;;;6250746;28;20241;-51
2022/12/12 01:22:31;;;;;;;35.10;20.67;;;-0.50;1.00;;;;;;6236368;28;20604;-50
2022/12/12 01:25:35;;;;;;;34.07;20.60;;;-0.50;1.00;;;;;;6235717;28;20234;-51
2022/12/12 01:28:39;;;;;;;38.20;20.83;;;-0.70;1.00;;;;;;6235586;28;21026;-51
2022/12/12 01:31:42;;;;;;;29.97;19.60;;;-0.50;1.00;;;;;;6245234;28;20794;-52
2022/12/12 01:34:45;;;;;;;31.50;18.93;;;-0.50;1.00;;;;;;6259566;28;20237;-51
2022/12/12 01:37:49;;;;;;;34.37;18.93;;;-0.50;1.00;;;;;;6254961;28;20504;-51
2022/12/12 01:40:54;;;;;;;38.27;19.93;;;-0.60;1.00;;;;;;6252474;28;20742;-51
2022/12/12 01:44:00;;;;;;;31.67;19.97;;;-0.50;1.00;;;;;;6235657;28;20234;-51
2022/12/12 01:47:03;;;;;;;35.47;18.90;;;-0.40;1.00;;;;;;6233303;28;20401;-51
2022/12/12 01:50:09;;;;;;;37.47;20.10;;;-0.40;1.00;;;;;;6235040;28;20227;-49
2022/12/12 01:53:15;;;;;;;34.10;19.27;;;-0.40;1.00;;;;;;6234941;28;20626;-51
2022/12/12 01:56:21;;;;;;;31.03;18.67;;;-0.40;1.00;;;;;;6229173;28;20539;-51
2022/12/12 01:59:25;;;;;;;30.27;17.50;;;-0.30;1.00;;;;;;6210509;28;20242;-56
2022/12/12 02:02:29;;;;;;;33.87;19.60;;;-0.50;1.00;;;;;;6227640;28;20230;-51
2022/12/12 02:05:37;;;;;;;24.60;16.70;;;-0.30;1.00;;;;;;6214472;28;20243;-51
2022/12/12 02:08:42;;;;;;;29.13;16.97;;;-0.40;1.00;;;;;;6229361;28;20242;-51
2022/12/12 02:11:49;;;;;;;30.63;18.40;;;-0.30;1.00;;;;;;6212671;28;20243;-50
2022/12/12 02:14:53;;;;;;;31.77;18.47;;;-0.40;1.00;;;;;;6209476;28;20699;-49
2022/12/12 02:18:04;;;;;;;28.00;18.17;;;-0.40;1.00;;;;;;6223891;28;20247;-52
2022/12/12 02:21:20;;;;;;;30.27;18.17;;;-0.40;1.00;;;;;;6234126;28;20234;-51
2022/12/12 02:25:15;;;;;;;30.73;18.20;;;-0.30;1.00;;;;;;6220091;28;20230;-51
2022/12/12 02:29:00;;;;;;;26.87;17.47;;;-0.30;1.00;;;;;;6225512;28;20235;-51
2022/12/12 02:32:08;;;;;;;36.63;19.40;;;-0.30;1.00;;;;;;6223138;28;20315;-46
2022/12/12 02:35:19;;;;;;;33.07;18.20;;;-0.50;1.00;;;;;;6234030;28;20231;-51
2022/12/12 02:38:27;;;;;;;32.30;19.03;;;-0.20;1.00;;;;;;6224880;28;20248;-50
2022/12/12 02:41:37;;;;;;;35.47;18.50;;;-0.30;1.00;;;;;;6213260;28;20254;-51
2022/12/12 02:44:47;;;;;;;34.33;19.57;;;-0.20;1.00;;;;;;6212121;28;20235;-54
2022/12/12 02:47:56;;;;;;;32.63;19.20;;;-0.30;1.00;;;;;;6233071;28;20253;-51
2022/12/12 02:51:03;;;;;;;36.57;19.10;;;-0.30;1.00;;;;;;6234765;28;20239;-51
2022/12/12 02:54:13;;;;;;;36.40;19.93;;;-0.40;1.00;;;;;;6232814;28;20719;-52
2022/12/12 02:57:18;;;;;;;31.07;18.63;;;-0.10;1.00;;;;;;6209825;28;20412;-51
2022/12/12 03:00:21;;;;;;;29.07;18.10;;;-0.20;1.00;;;;;;6209976;28;20235;-51
2022/12/12 03:10:45;;;;;;;35.83;19.57;;;0.00;1.00;;;;;;6249693;28;20240;-51
2022/12/12 03:13:59;;;;;;;39.83;19.40;;;0.00;1.00;;;;;;6232067;28;20238;-52
2022/12/12 03:17:10;;;;;;;28.87;19.10;;;-0.10;1.00;;;;;;6226902;28;20266;-52
2022/12/12 03:20:19;;;;;;;32.83;19.20;;;-0.10;1.00;;;;;;6232863;28;20621;-52
2022/12/12 03:23:27;;;;;;;35.23;19.63;;;0.10;1.00;;;;;;6220082;28;20249;-51
2022/12/12 03:26:33;;;;;;;37.67;19.93;;;0.00;1.00;;;;;;6233907;28;20246;-52
2022/12/12 03:29:41;;;;;;;35.50;19.37;;;0.10;1.00;;;;;;6234033;28;20241;-51
2022/12/12 03:32:52;;;;;;;37.60;18.70;;;0.10;1.00;;;;;;6232897;28;20583;-51
2022/12/12 03:36:00;;;;;;;34.63;20.10;;;0.10;1.00;;;;;;6236139;28;20245;-51
2022/12/12 03:39:07;;;;;;;32.67;18.57;;;-0.10;1.00;;;;;;6229563;28;20373;-51
2022/12/12 03:42:15;;;;;;;36.37;19.90;;;0.10;1.00;;;;;;6233780;28;20249;-51
2022/12/12 03:45:25;;;;;;;28.90;17.80;;;0.10;1.00;;;;;;6233521;28;20608;-51
2022/12/12 03:48:30;;;;;;;32.57;18.10;;;0.10;1.00;;;;;;6201025;28;20244;-51
2022/12/12 03:51:39;;;;;;;29.77;19.20;;;0.10;1.00;;;;;;6209473;28;20239;-51
2022/12/12 03:54:45;;;;;;;31.60;18.97;;;0.30;1.00;;;;;;6208895;28;20634;-52
2022/12/12 03:57:55;;;;;;;29.73;17.50;;;0.30;1.00;;;;;;6210000;28;20240;-51
2022/12/12 04:00:59;;;;;;;30.67;18.07;;;0.30;1.00;;;;;;6217363;28;20485;-51
2022/12/12 04:04:08;;;;;;;28.53;18.07;;;0.40;1.00;;;;;;6230321;28;20720;-51
2022/12/12 04:07:17;;;;;;;31.93;18.77;;;0.20;1.00;;;;;;6222297;28;20234;-51
2022/12/12 04:13:51;;;;;;;31.30;18.60;;;0.40;1.00;;;;;;6236478;28;20704;-49
2022/12/12 04:16:59;;;;;;;29.03;17.90;;;0.20;1.00;;;;;;6237752;28;20713;-50
2022/12/12 04:23:39;;;;;;;30.53;18.07;;;0.20;1.00;;;;;;6227031;28;20246;-52
2022/12/12 04:26:47;;;;;;;29.67;18.03;;;0.30;1.00;;;;;;6260378;28;20253;-52
2022/12/12 04:29:56;;;;;;;28.63;17.63;;;0.40;1.00;;;;;;6261501;28;20234;-51
2022/12/12 04:33:04;;;;;;;29.10;17.50;;;0.40;1.00;;;;;;6241772;28;20237;-51
2022/12/12 04:36:11;;;;;;;28.23;16.67;;;0.30;1.00;;;;;;6250305;28;20599;-51
2022/12/12 04:39:18;;;;;;;28.53;17.27;;;0.40;1.00;;;;;;6256872;28;20238;-50
2022/12/12 04:42:24;;;;;;;32.37;16.80;;;0.40;1.00;;;;;;6256599;28;20226;-51
2022/12/12 04:45:31;;;;;;;26.80;15.67;;;0.50;1.00;;;;;;6259761;28;20267;-53
2022/12/12 04:48:40;;;;;;;24.23;16.03;;;0.40;1.00;;;;;;6252478;28;20313;-51
2022/12/12 04:51:50;;;;;;;27.30;16.93;;;0.40;1.00;;;;;;6262050;28;20786;-52
2022/12/12 04:55:00;;;;;;;25.90;15.30;;;0.30;1.00;;;;;;6260782;28;20595;-52
2022/12/12 04:58:06;;;;;;;21.00;15.93;;;0.30;1.00;;;;;;6248304;28;20257;-52
2022/12/12 05:01:14;;;;;;;26.00;16.17;;;0.50;1.00;;;;;;6235821;28;20731;-51
2022/12/12 05:04:24;;;;;;;21.23;15.00;;;0.40;1.00;;;;;;6230043;28;20470;-51
2022/12/12 05:07:32;;;;;;;24.73;16.60;;;0.50;1.00;;;;;;6227345;28;20243;-51
2022/12/12 05:10:44;;;;;;;26.37;15.67;;;0.50;1.00;;;;;;6236947;28;20326;-51
2022/12/12 05:13:49;;;;;;;20.23;15.27;;;0.50;1.00;;;;;;6256755;28;20483;-52
2022/12/12 05:16:55;;;;;;;22.30;14.13;;;0.50;1.00;;;;;;6259359;28;20238;-52
2022/12/12 05:19:59;;;;;;;21.30;14.67;;;0.50;1.00;;;;;;6254584;28;20778;-51
2022/12/12 05:23:02;;;;;;;15.60;11.63;;;0.50;1.00;;;;;;6251966;28;20234;-51
2022/12/12 05:26:13;;;;;;;15.33;12.70;;;0.60;1.00;;;;;;6269951;28;20234;-51
2022/12/12 05:29:16;;;;;;;18.13;12.07;;;0.60;1.00;;;;;;6263120;28;20253;-51
2022/12/12 05:32:19;;;;;;;16.70;12.47;;;0.50;1.00;;;;;;6270046;28;20237;-52
2022/12/12 05:35:22;;;;;;;14.37;12.23;;;0.60;1.00;;;;;;6262524;28;20242;-51
2022/12/12 05:38:25;;;;;;;15.03;11.97;;;0.60;1.00;;;;;;6268986;28;20741;-51
2022/12/12 05:41:29;;;;;;;12.30;11.00;;;0.70;1.00;;;;;;6269826;28;20704;-51
2022/12/12 05:44:32;;;;;;;12.77;11.47;;;0.60;1.00;;;;;;6264372;28;20253;-51
2022/12/12 05:47:35;;;;;;;12.10;10.97;;;0.70;1.00;;;;;;6278099;28;20245;-52
2022/12/12 05:50:38;;;;;;;12.10;10.93;;;0.60;1.00;;;;;;6266655;28;20237;-51
2022/12/12 05:53:41;;;;;;;12.93;11.73;;;0.50;1.00;;;;;;6237323;28;20231;-52
2022/12/12 05:56:46;;;;;;;12.43;11.10;;;0.70;1.00;;;;;;6231595;28;20239;-51
2022/12/12 05:59:49;;;;;;;11.43;10.33;;;0.70;1.00;;;;;;6233779;28;20235;-52
2022/12/12 06:02:52;;;;;;;11.23;9.97;;;0.50;1.00;;;;;;6234201;28;20253;-52
2022/12/12 06:05:55;;;;;;;11.57;10.40;;;0.60;1.00;;;;;;6234306;28;20242;-52
2022/12/12 06:08:58;;;;;;;10.57;9.67;;;0.60;1.00;;;;;;6230165;28;20242;-51
2022/12/12 06:12:03;;;;;;;11.40;9.90;;;0.50;1.00;;;;;;6232550;28;20269;-51
2022/12/12 06:15:07;;;;;;;11.23;10.37;;;0.70;1.00;;;;;;6232702;28;20222;-55
2022/12/12 06:18:11;;;;;;;10.83;9.80;;;0.50;1.00;;;;;;6233106;28;20241;-50
2022/12/12 06:21:14;;;;;;;10.70;9.70;;;0.60;1.00;;;;;;6231451;28;20237;-50
2022/12/12 06:24:17;;;;;;;10.13;9.33;;;0.60;1.00;;;;;;6233351;28;20230;-51
2022/12/12 06:27:21;;;;;;;10.33;9.43;;;0.70;1.00;;;;;;6234139;28;20231;-53
2022/12/12 06:30:24;;;;;;;9.60;8.90;;;0.70;1.00;;;;;;6233231;28;20246;-51
2022/12/12 06:33:28;;;;;;;8.87;8.23;;;0.80;1.00;;;;;;6250197;28;20256;-54
2022/12/12 06:36:30;;;;;;;10.87;9.97;;;0.50;1.00;;;;;;6253887;28;20732;-51
2022/12/12 06:39:33;;;;;;;9.60;8.73;;;0.70;1.00;;;;;;6255748;28;20237;-50
2022/12/12 06:42:38;;;;;;;9.70;9.00;;;0.50;1.00;;;;;;6250455;28;20245;-51
2022/12/12 06:45:49;;;;;;;9.03;8.43;;;0.50;1.00;;;;;;6257256;28;20242;-51
2022/12/12 06:48:54;;;;;;;10.60;9.80;;;0.60;1.00;;;;;;6257774;28;20756;-51
2022/12/12 06:51:57;;;;;;;9.57;8.83;;;0.70;1.00;;;;;;6253104;28;20663;-51
2022/12/12 06:55:00;;;;;;;10.40;9.60;;;0.60;1.00;;;;;;6257975;28;20252;-52
2022/12/12 06:58:04;;;;;;;9.90;9.17;;;0.50;1.00;;;;;;6250396;28;20488;-52
2022/12/12 07:01:07;;;;;;;9.80;9.07;;;0.40;1.00;;;;;;6257752;28;20257;-52
2022/12/12 07:04:12;;;;;;;10.80;10.00;;;0.70;1.00;;;;;;6256751;28;20233;-51
2022/12/12 07:07:15;;;;;;;10.87;9.77;;;0.60;1.00;;;;;;6244532;28;20391;-51
2022/12/12 07:10:18;;;;;;;9.90;9.00;;;0.70;1.00;;;;;;6256682;28;20261;-59
2022/12/12 07:13:24;;;;;;;11.43;10.27;;;0.70;1.00;;;;;;6254063;28;20229;-51
2022/12/12 07:16:27;;;;;;;9.87;9.03;;;0.80;1.00;;;;;;6254156;28;20265;-53
2022/12/12 07:19:30;;;;;;;10.43;9.53;;;0.70;1.00;;;;;;6257809;28;20790;-51
2022/12/12 07:22:33;;;;;;;10.10;9.30;;;0.70;1.00;;;;;;6257532;28;20234;-52
2022/12/12 07:25:37;;;;;;;9.97;9.17;;;0.80;1.00;;;;;;6258643;28;20690;-51
2022/12/12 07:28:42;;;;;;;10.60;9.70;;;0.70;1.00;;;;;;6257937;28;20233;-50
2022/12/12 07:31:45;;;;;;;10.20;9.40;;;0.60;1.00;;;;;;6258247;28;20252;-52
2022/12/12 07:34:48;;;;;;;11.17;10.30;;;0.60;1.00;;;;;;6260123;28;20229;-51
2022/12/12 07:37:51;;;;;;;11.10;10.10;;;0.60;1.00;;;;;;6258573;28;20812;-51
2022/12/12 07:40:54;;;;;;;10.80;9.80;;;0.50;1.00;;;;;;6261825;28;20238;-51
2022/12/12 07:43:59;;;;;;;10.53;9.53;;;0.70;1.00;;;;;;6260897;28;20241;-52
2022/12/12 07:47:02;;;;;;;10.73;9.83;;;0.50;1.00;;;;;;6262892;28;20238;-52
2022/12/12 07:50:06;;;;;;;10.60;9.60;;;0.70;1.00;;;;;;6263341;28;20249;-53
2022/12/12 07:53:09;;;;;;;9.80;9.10;;;0.60;1.00;;;;;;6263697;28;20594;-52
2022/12/12 07:56:14;;;;;;;10.10;9.27;;;0.70;1.00;;;;;;6262970;28;20237;-51
2022/12/12 07:59:19;;;;;;;10.80;9.80;;;0.50;1.00;;;;;;6261030;28;20612;-51
2022/12/12 08:02:22;;;;;;;10.57;9.57;;;0.60;1.00;;;;;;6263165;28;20849;-52
2022/12/12 08:05:24;;;;;;;10.30;9.30;;;0.50;1.00;;;;;;6262972;28;20230;-53
2022/12/12 08:08:27;;;;;;;10.37;9.53;;;0.70;1.00;;;;;;6257560;28;20402;-50
2022/12/12 08:11:30;;;;;;;10.20;9.30;;;0.60;1.00;;;;;;6263036;28;20702;-50
2022/12/12 08:14:36;;;;;;;9.87;9.00;;;0.70;1.00;;;;;;6259266;28;20488;-50
2022/12/12 08:17:39;;;;;;;10.80;9.90;;;0.80;1.00;;;;;;6255652;28;20324;-51
2022/12/12 08:20:42;;;;;;;10.60;9.70;;;0.70;1.00;;;;;;6257212;28;20734;-51
2022/12/12 08:23:45;;;;;;;9.83;9.03;;;0.70;1.00;;;;;;6262335;28;20754;-51
2022/12/12 08:26:50;;;;;;;9.83;9.13;;;0.70;1.00;;;;;;6261929;28;20249;-52
2022/12/12 08:29:55;;;;;;;10.30;9.40;;;0.70;1.00;;;;;;6261050;28;20230;-54
2022/12/12 08:32:58;;;;;;;9.70;8.93;;;0.80;1.00;;;;;;6262361;28;20233;-51
2022/12/12 08:36:13;;;;;;;10.30;9.47;;;0.70;1.00;;;;;;6247318;28;20237;-51
2022/12/12 08:39:16;;;;;;;9.57;8.83;;;0.70;1.00;;;;;;6262051;28;20241;-52
2022/12/12 08:42:19;;;;;;;9.73;8.80;;;0.60;1.00;;;;;;6261558;28;20492;-53
2022/12/12 08:45:23;;;;;;;9.47;8.67;;;0.70;1.00;;;;;;6259699;28;20230;-57
2022/12/12 08:48:26;;;;;;;9.80;9.10;;;0.70;1.00;;;;;;6259403;28;20241;-50
2022/12/12 08:51:29;;;;;;;9.90;9.17;;;0.60;1.00;;;;;;6261079;28;20730;-50
2022/12/12 08:54:32;;;;;;;9.80;9.07;;;0.70;1.00;;;;;;6261284;28;20257;-51
2022/12/12 08:57:35;;;;;;;9.27;8.57;;;0.80;1.00;;;;;;6256771;28;20520;-51
2022/12/12 09:00:40;;;;;;;9.20;8.60;;;0.80;1.00;;;;;;6261295;28;20613;-51
2022/12/12 09:03:43;;;;;;;9.50;8.70;;;0.60;1.00;;;;;;6261031;28;20713;-51
2022/12/12 09:06:46;;;;;;;9.27;8.47;;;0.70;1.00;;;;;;6260105;28;20652;-52
2022/12/12 09:09:49;;;;;;;9.30;8.50;;;0.80;1.00;;;;;;6259861;28;20312;-52
2022/12/12 09:12:52;;;;;;;9.60;8.90;;;0.80;1.00;;;;;;6259386;28;20234;-52
2022/12/12 09:15:56;;;;;;;9.23;8.63;;;1.00;1.00;;;;;;6259413;28;20230;-51
2022/12/12 09:18:59;;;;;;;9.07;8.30;;;0.90;1.00;;;;;;6260761;28;20234;-51
2022/12/12 09:22:03;;;;;;;9.00;8.30;;;0.70;1.00;;;;;;6259998;28;20657;-52
2022/12/12 09:25:07;;;;;;;9.13;8.43;;;0.80;1.00;;;;;;6260730;28;20233;-52
2022/12/12 09:28:10;;;;;;;10.07;9.20;;;0.80;1.00;;;;;;6257242;28;20245;-52
2022/12/12 09:31:14;;;;;;;9.57;8.73;;;0.80;1.00;;;;;;6260667;28;20238;-52
2022/12/12 09:34:17;;;;;;;10.67;9.60;;;0.90;1.00;;;;;;6259425;28;20245;-52
2022/12/12 09:37:20;;;;;;;9.17;8.57;;;0.80;1.00;;;;;;6254852;28;20260;-52
2022/12/12 09:40:31;;;;;;;8.67;7.97;;;0.90;1.00;;;;;;6259951;28;20396;-52
2022/12/12 09:43:39;;;;;;;9.17;8.47;;;0.50;1.00;;;;;;6263111;28;20698;-50
2022/12/12 09:46:46;;;;;;;8.87;8.20;;;0.80;1.00;;;;;;6260016;28;20249;-52
2022/12/12 09:49:52;;;;;;;8.33;7.73;;;0.70;1.00;;;;;;6262584;28;20400;-52
2022/12/12 09:52:58;;;;;;;9.00;8.30;;;0.60;1.00;;;;;;6237096;28;20227;-54
2022/12/12 09:56:09;;;;;;;9.47;8.57;;;0.50;1.00;;;;;;6239867;28;20703;-52
2022/12/12 09:59:17;;;;;;;8.70;8.17;;;0.50;1.00;;;;;;6234292;28;20226;-54
2022/12/12 10:02:43;;;;;;;8.80;8.00;;;0.60;1.00;;;;;;6231047;28;20616;-52
2022/12/12 10:05:54;;;;;;;7.97;7.40;;;0.50;1.00;;;;;;6232377;28;20235;-51
2022/12/12 10:09:42;;;;;;;8.07;7.57;;;0.60;1.00;;;;;;6232826;28;20258;-52
2022/12/12 10:12:46;;;;;;;8.90;8.20;;;0.60;1.00;;;;;;6241618;28;20300;-51
2022/12/12 10:15:52;;;;;;;8.47;7.87;;;0.90;1.00;;;;;;6239163;28;20226;-51
2022/12/12 10:19:04;;;;;;;7.83;7.33;;;0.70;1.00;;;;;;6234227;28;20230;-52
2022/12/12 10:22:16;;;;;;;8.03;7.53;;;0.80;1.00;;;;;;6231993;28;20230;-53
2022/12/12 10:25:21;;;;;;;8.10;7.60;;;0.70;1.00;;;;;;6234442;28;20402;-58
2022/12/12 10:28:26;;;;;;;7.83;7.43;;;0.80;1.00;;;;;;6229626;28;20242;-52
2022/12/12 10:31:34;;;;;;;7.67;7.17;;;1.00;1.00;;;;;;6232314;28;20325;-52
2022/12/12 10:34:49;;;;;;;8.07;7.63;;;1.00;1.00;;;;;;6230053;28;20234;-52
2022/12/12 10:38:03;;;;;;;7.53;7.13;;;1.00;1.00;;;;;;6234221;28;20705;-51
2022/12/12 10:41:13;;;;;;;7.53;7.03;;;0.90;1.00;;;;;;6226678;28;20233;-52
2022/12/12 10:44:27;;;;;;;6.63;6.33;;;1.10;1.00;;;;;;6230024;28;20231;-51
2022/12/12 10:47:31;;;;;;;7.30;6.90;;;1.20;1.00;;;;;;6233594;28;20389;-50
2022/12/12 10:50:38;;;;;;;6.70;6.30;;;1.10;1.00;;;;;;6231908;28;20242;-52
2022/12/12 10:53:42;;;;;;;7.00;6.70;;;1.20;1.00;;;;;;6234584;28;20242;-51
2022/12/12 10:57:05;;;;;;;6.63;6.23;;;0.90;1.00;;;;;;6234009;28;20719;-56
2022/12/12 11:00:17;;;;;;;6.97;6.57;;;1.10;1.00;;;;;;6252593;28;20237;-51
2022/12/12 11:03:26;;;;;;;6.63;6.43;;;1.10;1.00;;;;;;6258477;28;20607;-52
2022/12/12 11:06:36;;;;;;;6.70;6.20;;;1.20;1.00;;;;;;6257938;28;20409;-52
2022/12/12 11:09:45;;;;;;;5.57;5.27;;;1.20;1.00;;;;;;6251525;28;20604;-52
2022/12/12 11:12:56;;;;;;;6.80;6.50;;;1.10;1.00;;;;;;6257806;28;20237;-52
2022/12/12 11:16:01;;;;;;;6.47;6.13;;;1.20;1.00;;;;;;6253504;28;20237;-52
2022/12/12 11:19:07;;;;;;;6.00;5.77;;;1.10;1.00;;;;;;6256345;28;20242;-51
2022/12/12 11:22:13;;;;;;;7.07;6.67;;;1.30;1.00;;;;;;6228455;28;20629;-52
2022/12/12 11:25:25;;;;;;;7.37;6.87;;;1.50;1.00;;;;;;6241307;28;20563;-52
2022/12/12 11:28:32;;;;;;;7.67;7.17;;;1.10;1.00;;;;;;6240159;28;20261;-51
2022/12/12 11:31:35;;;;;;;7.80;7.20;;;1.00;1.00;;;;;;6237478;28;20459;-56
2022/12/12 11:34:43;;;;;;;9.03;8.33;;;1.40;1.00;;;;;;6230785;28;20322;-53
2022/12/12 11:37:50;;;;;;;8.27;7.60;;;1.20;1.00;;;;;;6233114;28;20258;-51
2022/12/12 11:40:59;;;;;;;8.63;8.03;;;1.20;1.00;;;;;;6232661;28;20235;-52
2022/12/12 11:44:02;;;;;;;8.90;8.40;;;1.50;1.00;;;;;;6232988;28;20231;-52
2022/12/12 11:47:22;;;;;;;8.60;8.10;;;1.30;1.00;;;;;;6233904;28;20500;-52
2022/12/12 11:50:28;;;;;;;8.40;7.73;;;1.60;1.00;;;;;;6230125;28;20243;-51
2022/12/12 11:53:36;;;;;;;8.80;8.07;;;1.60;1.00;;;;;;6235025;28;20397;-52
2022/12/12 11:56:45;;;;;;;10.40;9.40;;;1.90;1.00;;;;;;6235237;28;20231;-52
2022/12/12 12:00:01;;;;;;;9.53;8.90;;;1.70;1.00;;;;;;6230947;28;20388;-53
2022/12/12 12:03:29;;;;;;;8.53;7.93;;;1.10;1.00;;;;;;6233930;28;20757;-52
2022/12/12 12:06:42;;;;;;;9.83;9.13;;;1.10;1.00;;;;;;6223190;28;20270;-52
2022/12/12 12:09:54;;;;;;;10.20;9.27;;;0.80;1.00;;;;;;6234672;28;20609;-50
2022/12/12 12:13:05;;;;;;;9.60;8.90;;;0.70;1.00;;;;;;6230252;28;20227;-52
2022/12/12 12:16:17;;;;;;;10.23;9.40;;;0.60;1.00;;;;;;6232250;28;20246;-51
2022/12/12 12:19:27;;;;;;;10.70;9.90;;;0.60;1.00;;;;;;6234291;28;20235;-52
2022/12/12 12:22:43;;;;;;;11.20;10.30;;;0.50;1.00;;;;;;6229936;28;20227;-52
2022/12/12 12:25:55;;;;;;;11.50;10.30;;;0.50;1.00;;;;;;6231324;28;20235;-53
2022/12/12 12:29:24;;;;;;;11.63;10.63;;;0.40;1.00;;;;;;6228430;28;20413;-51
2022/12/12 12:32:35;;;;;;;11.27;10.20;;;0.40;1.00;;;;;;6236070;28;20242;-52
2022/12/12 12:35:50;;;;;;;8.53;7.83;;;0.40;1.00;;;;;;6228455;28;20238;-52
2022/12/12 12:39:00;;;;;;;9.37;8.67;;;0.30;1.00;;;;;;6237709;28;20238;-53
2022/12/12 12:42:15;;;;;;;9.60;8.90;;;0.40;1.00;;;;;;6234980;28;20250;-56
2022/12/12 12:45:24;;;;;;;9.17;8.40;;;0.50;1.00;;;;;;6234873;28;20633;-51
2022/12/12 12:48:31;;;;;;;8.63;8.13;;;0.60;1.00;;;;;;6236384;28;20567;-53
2022/12/12 12:51:38;;;;;;;7.83;7.33;;;0.40;1.00;;;;;;6236712;28;20243;-52
2022/12/12 12:54:48;;;;;;;7.60;7.00;;;0.30;1.00;;;;;;6226016;28;20691;-49
2022/12/12 12:57:53;;;;;;;7.53;6.90;;;0.40;1.00;;;;;;6234708;28;20243;-52
2022/12/12 13:01:02;;;;;;;7.53;7.13;;;0.20;1.00;;;;;;6237007;28;20590;-58
2022/12/12 13:04:13;;;;;;;8.03;7.53;;;0.20;1.00;;;;;;6237194;28;20259;-51
2022/12/12 13:07:24;;;;;;;7.67;7.20;;;0.20;1.00;;;;;;6233669;28;20763;-51
2022/12/12 13:10:29;;;;;;;8.30;7.70;;;0.20;1.00;;;;;;6236505;28;20238;-50
2022/12/12 13:13:37;;;;;;;7.10;6.50;;;0.20;1.00;;;;;;6234489;28;20234;-52
2022/12/12 13:16:41;;;;;;;6.73;6.33;;;-0.10;1.00;;;;;;6234677;28;20231;-55
2022/12/12 13:19:47;;;;;;;7.37;6.80;;;0.20;1.00;;;;;;6258086;28;20416;-53
2022/12/12 13:23:06;;;;;;;7.83;7.23;;;0.10;1.00;;;;;;6260262;28;20737;-50
2022/12/12 13:26:17;;;;;;;7.27;6.87;;;0.10;1.00;;;;;;6253393;28;20245;-51
2022/12/12 13:29:36;;;;;;;7.40;6.90;;;-0.10;1.00;;;;;;6257983;28;20398;-53
2022/12/12 13:33:01;;;;;;;7.60;7.10;;;-0.10;1.00;;;;;;6257380;28;20257;-52
2022/12/12 13:36:11;;;;;;;8.03;7.43;;;0.10;1.00;;;;;;6248562;28;20281;-52
2022/12/12 13:39:26;;;;;;;7.40;6.90;;;0.20;1.00;;;;;;6234024;28;20235;-52
2022/12/12 13:42:52;;;;;;;7.50;7.00;;;0.10;1.00;;;;;;6232447;28;20699;-52
2022/12/12 13:45:57;;;;;;;7.93;7.43;;;0.10;1.00;;;;;;6234279;28;20578;-50
2022/12/12 13:49:10;;;;;;;7.60;7.20;;;0.10;1.00;;;;;;6227990;28;20242;-52
2022/12/12 13:52:26;;;;;;;7.57;7.07;;;0.00;1.00;;;;;;6234684;28;20760;-52
2022/12/12 13:55:29;;;;;;;8.20;7.60;;;0.30;1.00;;;;;;6234404;28;20267;-54
2022/12/12 13:58:34;;;;;;;8.60;8.00;;;0.40;1.00;;;;;;6234121;28;20262;-50
2022/12/12 14:01:40;;;;;;;9.07;8.27;;;0.10;1.00;;;;;;6234767;28;20237;-51
2022/12/12 14:04:43;;;;;;;8.90;8.20;;;0.30;1.00;;;;;;6233085;28;20330;-52
2022/12/12 14:07:51;;;;;;;8.50;7.90;;;0.30;1.00;;;;;;6234775;28;20235;-51
2022/12/12 14:11:01;;;;;;;8.33;7.73;;;0.10;1.00;;;;;;6233185;28;20231;-51
2022/12/12 14:14:19;;;;;;;9.60;8.93;;;0.10;1.00;;;;;;6232171;28;20242;-51
2022/12/12 14:17:27;;;;;;;8.60;7.93;;;0.00;1.00;;;;;;6234814;28;20601;-51
2022/12/12 14:20:33;;;;;;;9.07;8.37;;;-0.20;1.00;;;;;;6232767;28;20310;-52
2022/12/12 14:23:38;;;;;;;10.77;9.83;;;-0.20;1.00;;;;;;6235162;28;20234;-51
2022/12/12 14:26:50;;;;;;;11.27;10.27;;;-0.30;1.00;;;;;;6233652;28;20230;-53
2022/12/12 14:29:53;;;;;;;10.97;9.97;;;-0.20;1.00;;;;;;6255184;28;20687;-51
2022/12/12 14:33:04;;;;;;;11.50;10.53;;;-0.30;1.00;;;;;;6259244;28;20234;-50
2022/12/12 14:36:35;;;;;;;14.27;11.37;;;-0.10;1.00;;;;;;6249493;28;20393;-51
2022/12/12 14:40:01;;;;;;;12.30;11.10;;;0.00;1.00;;;;;;6255177;28;20678;-52
2022/12/12 14:43:13;;;;;;;12.07;10.93;;;-0.30;1.00;;;;;;6258322;28;20230;-51
2022/12/12 14:46:23;;;;;;;12.47;11.10;;;-0.20;1.00;;;;;;6253597;28;20242;-51
2022/12/12 14:49:27;;;;;;;12.70;11.47;;;-0.40;1.00;;;;;;6258113;28;20250;-52
2022/12/12 14:52:30;;;;;;;12.97;11.73;;;-0.20;1.00;;;;;;6247973;28;20368;-51
2022/12/12 14:55:33;;;;;;;12.73;11.40;;;-0.40;1.00;;;;;;6258257;28;20273;-53
2022/12/12 14:58:40;;;;;;;13.67;12.33;;;-0.40;1.00;;;;;;6258472;28;20241;-53
2022/12/12 15:01:46;;;;;;;13.40;12.00;;;-0.60;1.00;;;;;;6253826;28;20321;-50
2022/12/12 15:04:54;;;;;;;13.20;11.77;;;-0.10;1.00;;;;;;6255836;28;20585;-53
2022/12/12 15:08:16;;;;;;;14.53;12.93;;;-0.40;1.00;;;;;;6258338;28;20654;-57
2022/12/12 15:11:22;;;;;;;13.60;12.20;;;-0.30;1.00;;;;;;6238478;28;20234;-52
2022/12/12 15:14:27;;;;;;;13.20;11.90;;;-0.40;1.00;;;;;;6254916;28;20248;-52
2022/12/12 15:17:33;;;;;;;13.77;11.90;;;-0.40;1.00;;;;;;6258296;28;20249;-52
2022/12/12 15:20:37;;;;;;;13.60;12.10;;;-0.30;1.00;;;;;;6255731;28;20367;-52
2022/12/12 15:23:41;;;;;;;13.97;11.93;;;-0.50;1.00;;;;;;6251548;28;20226;-52
2022/12/12 15:26:45;;;;;;;16.10;11.73;;;-0.30;1.00;;;;;;6258564;28;20241;-52
2022/12/12 15:29:49;;;;;;;12.63;11.43;;;-0.30;1.00;;;;;;6259356;28;20241;-51
2022/12/12 15:32:52;;;;;;;12.37;11.23;;;-0.40;1.00;;;;;;6256578;28;20234;-52
2022/12/12 15:35:57;;;;;;;13.83;12.53;;;-0.40;1.00;;;;;;6250893;28;20233;-51
2022/12/12 15:39:13;;;;;;;13.20;11.90;;;-0.40;1.00;;;;;;6258277;28;20253;-51
2022/12/12 15:42:16;;;;;;;12.73;11.40;;;-0.50;1.00;;;;;;6253873;28;20637;-51
2022/12/12 15:45:24;;;;;;;11.90;10.63;;;-0.50;1.00;;;;;;6259104;28;20233;-51
2022/12/12 15:48:27;;;;;;;14.23;11.80;;;-0.30;1.00;;;;;;6258563;28;20738;-52
2022/12/12 15:51:32;;;;;;;12.40;11.10;;;-0.60;1.00;;;;;;6255206;28;20606;-51
2022/12/12 15:54:35;;;;;;;14.30;12.33;;;-0.60;1.00;;;;;;6259212;28;20752;-52
2022/12/12 15:57:45;;;;;;;11.97;10.80;;;-0.50;1.00;;;;;;6262570;28;20238;-52
2022/12/12 16:00:51;;;;;;;11.83;10.57;;;-0.30;1.00;;;;;;6261694;28;20238;-53
2022/12/12 16:03:57;;;;;;;11.90;10.70;;;-0.40;1.00;;;;;;6237591;28;20238;-51
2022/12/12 16:07:20;;;;;;;12.20;10.97;;;-0.60;1.00;;;;;;6238017;28;20242;-50
2022/12/12 16:10:24;;;;;;;12.50;10.47;;;-0.60;1.00;;;;;;6235710;28;20257;-50
2022/12/12 16:13:35;;;;;;;12.17;10.93;;;-0.70;1.00;;;;;;6234514;28;20242;-51
2022/12/12 16:16:42;;;;;;;11.60;10.43;;;-0.40;1.00;;;;;;6237488;28;20400;-50
2022/12/12 16:19:52;;;;;;;14.90;11.90;;;-0.50;1.00;;;;;;6230295;28;20257;-51
2022/12/12 16:23:07;;;;;;;12.37;11.20;;;-0.60;1.00;;;;;;6238366;28;20231;-51
2022/12/12 16:26:10;;;;;;;13.93;11.60;;;-0.70;1.00;;;;;;6237766;28;20241;-50
2022/12/12 16:29:13;;;;;;;11.17;10.10;;;-0.60;1.00;;;;;;6235857;28;20235;-51
2022/12/12 16:32:19;;;;;;;12.30;11.20;;;-0.60;1.00;;;;;;6238340;28;20235;-51
2022/12/12 16:35:24;;;;;;;12.40;11.03;;;-0.50;1.00;;;;;;6245892;28;20231;-46
2022/12/12 16:38:29;;;;;;;12.00;10.80;;;-0.50;1.00;;;;;;6238327;28;20242;-51